Terminal Aerodrome Forecast
Issued by NWS

Home | Current Version | Previous Version | Text Only | Print | Product List | Glossary On
Versions: 1 2 3 4 5 6 7 8 9 10 11 12 13 14 15 16 17 18
000
FTUS42 KGSP 232320
TAFHKY
TAF
KHKY 232320Z 2400/2424 22015G25KT P6SM SCT060
     FM240300 21012G21KT P6SM VCSH OVC040
      TEMPO 2404/2406 4SM TSRA OVC025CB
     FM240800 23008KT P6SM BKN025
     FM241200 24007KT P6SM BKN015
     FM241500 26006KT P6SM BKN030 PROB30 2415/2418 3SM -TSRA
      OVC015CB
     FM242100 27004KT P6SM BKN250=

USA.gov is the U.S. government's official web portal to all federal, state and local government web resources and services.